createdAt,value
2023-04-14T00:02:08.699Z,100481.53
2023-04-14T00:04:38.165Z,100488.06
2023-04-14T00:07:07.576Z,100487.91
2023-04-14T00:09:39.536Z,100487.69
2023-04-14T00:12:09.252Z,100491.31
2023-04-14T00:14:38.722Z,100489.09
2023-04-14T00:17:08.051Z,100488.19
2023-04-14T00:19:37.553Z,100492.25
2023-04-14T00:22:06.877Z,100497.63
2023-04-14T00:24:43.446Z,100506.59
2023-04-14T00:27:13.484Z,100504.97
2023-04-14T00:29:42.780Z,100498.06
2023-04-14T00:32:12.235Z,100502.69
2023-04-14T00:34:41.628Z,100506.19
2023-04-14T00:37:11.014Z,100505.84
2023-04-14T00:39:43.098Z,100503.34
2023-04-14T00:42:12.436Z,100510.44
2023-04-14T00:44:41.752Z,100515.28
2023-04-14T00:47:11.540Z,100511.41
2023-04-14T00:49:41.135Z,100509.94
2023-04-14T00:52:10.544Z,100523.09
2023-04-14T00:54:43.535Z,100522.16
2023-04-14T00:57:13.110Z,100525.94
2023-04-14T00:59:42.485Z,100529.78
2023-04-14T01:02:12.174Z,100523.03
2023-04-14T01:04:52.535Z,100525.00
2023-04-14T01:07:26.151Z,100528.06
2023-04-14T01:10:01.059Z,100532.47
2023-04-14T01:12:44.184Z,100543.13
2023-04-14T01:15:17.803Z,100532.84
2023-04-14T01:17:51.477Z,100528.13
2023-04-14T01:20:29.904Z,100520.25
2023-04-14T01:23:07.184Z,100527.34
2023-04-14T01:26:06.273Z,100529.97
2023-04-14T01:29:03.348Z,100529.09
2023-04-14T01:31:39.996Z,100525.44
2023-04-14T01:34:16.108Z,100532.59
2023-04-14T01:36:47.847Z,100530.06
2023-04-14T01:39:23.765Z,100530.31
2023-04-14T01:41:59.130Z,100526.78
2023-04-14T01:44:30.777Z,100530.84
2023-04-14T01:47:07.122Z,100531.66
2023-04-14T01:49:39.600Z,100527.44
2023-04-14T01:52:11.812Z,100531.41
2023-04-14T01:54:42.817Z,100526.22
2023-04-14T01:57:15.425Z,100524.94
2023-04-14T01:59:47.220Z,100536.72
2023-04-14T02:02:21.456Z,100534.88
2023-04-14T02:04:52.389Z,100538.34
2023-04-14T02:07:24.181Z,100536.50
2023-04-14T02:09:56.364Z,100537.78
2023-04-14T02:12:27.992Z,100550.88
2023-04-14T02:14:58.069Z,100544.69
2023-04-14T02:17:31.016Z,100552.97
2023-04-14T02:20:04.371Z,100551.75
2023-04-14T02:22:33.705Z,100553.16
2023-04-14T02:25:03.260Z,100552.94
2023-04-14T02:27:37.509Z,100556.75
2023-04-14T02:30:13.766Z,100558.88
2023-04-14T02:32:51.071Z,100560.09
2023-04-14T02:35:28.245Z,100558.63
2023-04-14T02:38:01.853Z,100553.03
2023-04-14T02:40:35.008Z,100551.41
2023-04-14T02:43:10.253Z,100554.09
2023-04-14T02:45:42.464Z,100550.47
2023-04-14T02:48:17.294Z,100550.63
2023-04-14T02:50:52.305Z,100557.53
2023-04-14T02:53:24.933Z,100561.13
2023-04-14T02:55:54.649Z,100566.66
2023-04-14T02:58:26.393Z,100565.25
2023-04-14T03:00:56.508Z,100574.34
2023-04-14T03:03:30.464Z,100572.38
2023-04-14T03:06:00.283Z,100569.44
2023-04-14T03:08:30.708Z,100572.25
2023-04-14T03:11:00.992Z,100576.44
2023-04-14T03:13:31.419Z,100576.22
2023-04-14T03:16:02.084Z,100572.56
2023-04-14T03:18:35.480Z,100570.38
2023-04-14T03:21:05.200Z,100571.28
2023-04-14T03:23:36.230Z,100573.63
2023-04-14T03:26:06.355Z,100573.16
2023-04-14T03:28:39.446Z,100564.06
2023-04-14T03:31:10.565Z,100569.66
2023-04-14T03:33:46.267Z,100570.72
2023-04-14T03:36:17.781Z,100580.63
2023-04-14T03:38:49.566Z,100580.84
2023-04-14T03:41:22.543Z,100576.66
2023-04-14T03:43:56.971Z,100573.97
2023-04-14T03:46:28.561Z,100583.09
2023-04-14T03:49:06.811Z,100582.50
2023-04-14T03:51:37.011Z,100574.34
2023-04-14T03:54:10.218Z,100577.38
2023-04-14T03:56:41.512Z,100576.66
2023-04-14T03:59:13.386Z,100577.84
2023-04-14T04:01:44.579Z,100586.59
2023-04-14T04:04:17.763Z,100578.06
2023-04-14T04:06:49.606Z,100579.94
2023-04-14T04:09:20.631Z,100570.88
2023-04-14T04:11:52.646Z,100570.06
2023-04-14T04:14:24.452Z,100575.53
2023-04-14T04:16:56.642Z,100580.06
2023-04-14T04:19:28.993Z,100586.47
2023-04-14T04:22:01.611Z,100583.81
2023-04-14T04:24:34.497Z,100584.53
2023-04-14T04:27:06.497Z,100590.34
2023-04-14T04:29:37.532Z,100582.19
2023-04-14T04:32:08.293Z,100577.03
2023-04-14T04:34:41.623Z,100582.63
2023-04-14T04:37:13.220Z,100584.28
2023-04-14T04:39:43.010Z,100578.66
2023-04-14T04:42:12.362Z,100573.78
2023-04-14T04:44:41.722Z,100582.03
2023-04-14T04:47:12.258Z,100579.59
2023-04-14T04:49:44.176Z,100582.63
2023-04-14T04:52:13.549Z,100587.75
2023-04-14T04:54:42.848Z,100583.91
2023-04-14T04:57:12.376Z,100577.66
2023-04-14T04:59:41.733Z,100580.06
2023-04-14T05:02:11.134Z,100575.53
2023-04-14T05:04:40.996Z,100583.34
2023-04-14T05:07:12.972Z,100583.69
2023-04-14T05:09:42.376Z,100587.16
2023-04-14T05:12:12.019Z,100581.47
2023-04-14T05:14:41.347Z,100583.81
2023-04-14T05:17:10.862Z,100588.94
2023-04-14T05:19:43.213Z,100582.97
2023-04-14T05:22:16.094Z,100581.34
2023-04-14T05:24:51.548Z,100587.16
2023-04-14T05:27:22.123Z,100596.38
2023-04-14T05:29:51.653Z,100591.63
2023-04-14T05:32:21.766Z,100594.88
2023-04-14T05:34:51.494Z,100600.13
2023-04-14T05:37:23.448Z,100596.88
2023-04-14T05:39:53.355Z,100604.78
2023-04-14T05:42:22.676Z,100600.59
2023-04-14T05:44:51.987Z,100604.88
2023-04-14T05:47:21.436Z,100595.91
2023-04-14T05:49:50.790Z,100600.94
2023-04-14T05:52:22.699Z,100600.47
2023-04-14T05:54:52.015Z,100603.47
2023-04-14T05:57:21.413Z,100599.59
2023-04-14T05:59:50.750Z,100596.56
2023-04-14T06:02:20.118Z,100595.19
2023-04-14T06:04:50.307Z,100597.06
2023-04-14T06:07:19.720Z,100602.31
2023-04-14T06:09:51.634Z,100598.22
2023-04-14T06:12:21.105Z,100601.84
2023-04-14T06:14:52.439Z,100598.47
2023-04-14T06:17:21.834Z,100596.84
2023-04-14T06:19:51.448Z,100595.22
2023-04-14T06:22:21.697Z,100601.94
2023-04-14T06:24:53.777Z,100595.91
2023-04-14T06:27:23.310Z,100596.69
2023-04-14T06:29:52.609Z,100604.19
2023-04-14T06:32:22.073Z,100596.94
2023-04-14T06:34:53.306Z,100594.38
2023-04-14T06:37:24.730Z,100592.63
2023-04-14T06:39:56.609Z,100592.44
2023-04-14T06:42:26.077Z,100593.00
2023-04-14T06:44:55.420Z,100591.03
2023-04-14T06:47:25.568Z,100594.28
2023-04-14T06:49:55.073Z,100593.25
2023-04-14T06:52:24.359Z,100594.72
2023-04-14T06:54:56.378Z,100590.19
2023-04-14T06:57:26.018Z,100588.47
2023-04-14T06:59:56.627Z,100591.38
2023-04-14T07:02:26.225Z,100584.50
2023-04-14T07:04:55.616Z,100595.25
2023-04-14T07:07:25.022Z,100596.03
2023-04-14T07:09:57.160Z,100597.53
2023-04-14T07:12:26.645Z,100599.06
2023-04-14T07:14:55.983Z,100595.13
2023-04-14T07:17:25.429Z,100602.09
2023-04-14T07:19:55.049Z,100597.91
2023-04-14T07:22:24.381Z,100603.72
2023-04-14T07:24:53.938Z,100596.16
2023-04-14T07:27:28.747Z,100604.53
2023-04-14T07:29:58.545Z,100607.22
2023-04-14T07:32:28.109Z,100604.88
2023-04-14T07:34:59.347Z,100607.00
2023-04-14T07:37:28.936Z,100598.13
2023-04-14T07:39:59.042Z,100602.91
2023-04-14T07:42:30.924Z,100604.06
2023-04-14T07:45:00.241Z,100609.09
2023-04-14T07:47:29.792Z,100613.50
2023-04-14T07:49:59.570Z,100607.59
2023-04-14T07:52:29.113Z,100610.50
2023-04-14T07:54:58.542Z,100608.28
2023-04-14T07:57:27.853Z,100601.84
2023-04-14T07:59:59.744Z,100609.44
2023-04-14T08:02:29.234Z,100616.31
2023-04-14T08:04:58.748Z,100608.50
2023-04-14T08:07:29.759Z,100616.09
2023-04-14T08:09:59.422Z,100628.09
2023-04-14T08:12:28.811Z,100620.50
2023-04-14T08:15:00.783Z,100619.69
2023-04-14T08:17:30.221Z,100624.91
2023-04-14T08:19:59.546Z,100624.91
2023-04-14T08:22:28.872Z,100622.88
2023-04-14T08:24:58.182Z,100627.97
2023-04-14T08:27:27.533Z,100627.50
2023-04-14T08:29:57.507Z,100623.66
2023-04-14T08:32:29.430Z,100616.66
2023-04-14T08:35:35.271Z,100621.28
2023-04-14T08:37:48.688Z,100612.16
2023-04-14T08:40:20.521Z,100610.53
2023-04-14T08:42:51.859Z,100615.78
2023-04-14T08:45:22.162Z,100615.25
2023-04-14T08:47:57.864Z,100609.91
2023-04-14T08:50:29.292Z,100614.19
2023-04-14T08:52:59.550Z,100605.88
2023-04-14T08:55:29.796Z,100605.88
2023-04-14T08:58:00.735Z,100607.41
2023-04-14T09:00:31.108Z,100608.25
2023-04-14T09:03:03.535Z,100605.41
2023-04-14T09:05:33.185Z,100608.28
2023-04-14T09:08:03.837Z,100602.91
2023-04-14T09:10:35.753Z,100610.84
2023-04-14T09:13:07.730Z,100607.66
2023-04-14T09:15:38.359Z,100605.94
2023-04-14T09:18:10.558Z,100610.50
2023-04-14T09:20:41.463Z,100619.81
2023-04-14T09:23:12.544Z,100624.81
2023-04-14T09:25:43.169Z,100618.50
2023-04-14T09:28:13.692Z,100613.66
2023-04-14T09:30:43.902Z,100629.63
2023-04-14T09:33:25.052Z,100633.25
2023-04-14T09:35:55.746Z,100634.25
2023-04-14T09:38:36.598Z,100634.66
2023-04-14T09:41:08.331Z,100631.66
2023-04-14T09:43:37.740Z,100620.16
2023-04-14T09:46:08.805Z,100627.97
2023-04-14T09:48:52.903Z,100634.34
2023-04-14T09:51:24.844Z,100635.66
2023-04-14T09:53:56.100Z,100625.97
2023-04-14T09:56:29.985Z,100620.69
2023-04-14T09:59:02.176Z,100621.22
2023-04-14T10:01:34.888Z,100626.13
2023-04-14T10:04:07.012Z,100627.66
2023-04-14T10:06:36.330Z,100628.47
2023-04-14T10:09:06.005Z,100615.94
2023-04-14T10:11:35.666Z,100621.53
2023-04-14T10:14:06.812Z,100611.06
2023-04-14T10:16:36.819Z,100607.63
2023-04-14T10:19:08.910Z,100607.25
2023-04-14T10:21:38.439Z,100606.66
2023-04-14T10:24:08.022Z,100599.19
2023-04-14T10:26:37.453Z,100610.72
2023-04-14T10:29:07.791Z,100610.88
2023-04-14T10:31:40.396Z,100610.47
2023-04-14T10:34:13.991Z,100613.16
2023-04-14T10:36:43.740Z,100610.25
2023-04-14T10:39:14.602Z,100608.84
2023-04-14T10:41:49.457Z,100609.09
2023-04-14T10:44:31.722Z,100608.22
2023-04-14T10:47:02.682Z,100606.66
2023-04-14T10:49:37.084Z,100607.41
2023-04-14T10:52:08.456Z,100606.47
2023-04-14T10:54:55.331Z,100609.31
2023-04-14T10:57:25.251Z,100616.00
2023-04-14T10:59:58.976Z,100622.69
2023-04-14T11:02:30.490Z,100624.72
2023-04-14T11:05:04.640Z,100628.56
2023-04-14T11:07:38.811Z,100627.56
2023-04-14T11:10:30.065Z,100624.72
2023-04-14T11:13:04.106Z,100619.91
2023-04-14T11:15:47.070Z,100623.13
2023-04-14T11:18:18.620Z,100621.91
2023-04-14T11:20:50.600Z,100617.38
2023-04-14T11:23:20.077Z,100623.53
2023-04-14T11:25:50.238Z,100621.22
2023-04-14T11:28:29.105Z,100607.06
2023-04-14T11:31:00.257Z,100618.38
2023-04-14T11:33:31.125Z,100607.38
2023-04-14T11:36:04.789Z,100617.06
2023-04-14T11:38:35.750Z,100613.59
2023-04-14T11:41:06.596Z,100603.16
2023-04-14T11:43:36.085Z,100594.19
2023-04-14T11:46:08.445Z,100594.13
2023-04-14T11:48:38.300Z,100592.16
2023-04-14T11:51:10.308Z,100605.59
2023-04-14T11:53:40.652Z,100603.16
2023-04-14T11:56:13.113Z,100599.56
2023-04-14T11:58:42.825Z,100609.41
2023-04-14T12:01:14.903Z,100607.56
2023-04-14T12:03:45.144Z,100602.81
2023-04-14T12:06:18.255Z,100600.94
2023-04-14T12:08:50.654Z,100604.56
2023-04-14T12:11:20.173Z,100600.22
2023-04-14T12:13:50.496Z,100596.81
2023-04-14T12:16:20.312Z,100599.97
2023-04-14T12:18:49.908Z,100604.78
2023-04-14T12:21:22.628Z,100595.41
2023-04-14T12:23:52.037Z,100601.19
2023-04-14T12:26:23.205Z,100591.69
2023-04-14T12:28:59.188Z,100591.28
2023-04-14T12:31:32.646Z,100590.88
2023-04-14T12:34:06.526Z,100589.97
2023-04-14T12:36:50.046Z,100585.63
2023-04-14T12:39:22.185Z,100581.16
2023-04-14T12:41:51.662Z,100573.56
2023-04-14T12:44:24.507Z,100578.72
2023-04-14T12:46:55.849Z,100564.25
2023-04-14T12:49:36.335Z,100566.16
2023-04-14T12:52:08.861Z,100564.91
2023-04-14T12:54:52.221Z,100561.16
2023-04-14T12:57:22.933Z,100555.59
2023-04-14T12:59:52.331Z,100558.59
2023-04-14T13:02:22.407Z,100549.81
2023-04-14T13:04:51.958Z,100542.84
2023-04-14T13:07:24.111Z,100542.41
2023-04-14T13:09:53.684Z,100539.41
2023-04-14T13:12:23.005Z,100535.16
2023-04-14T13:14:52.343Z,100516.19
2023-04-14T13:17:21.852Z,100515.69
2023-04-14T13:19:51.358Z,100506.47
2023-04-14T13:22:21.013Z,100503.59
2023-04-14T13:24:53.012Z,100496.19
2023-04-14T13:27:22.438Z,100492.94
2023-04-14T13:29:51.759Z,100494.25
2023-04-14T13:32:21.192Z,100498.59
2023-04-14T13:34:52.541Z,100499.34
2023-04-14T13:37:22.083Z,100486.22
2023-04-14T13:39:54.139Z,100483.19
2023-04-14T13:42:23.479Z,100486.22
2023-04-14T13:44:52.894Z,100478.25
2023-04-14T13:47:22.290Z,100477.06
2023-04-14T13:49:51.882Z,100477.84
2023-04-14T13:52:21.205Z,100467.59
2023-04-14T13:54:50.546Z,100456.91
2023-04-14T13:57:25.178Z,100469.50
2023-04-14T13:59:54.515Z,100468.72
2023-04-14T14:02:24.372Z,100459.75
2023-04-14T14:04:53.897Z,100463.00
2023-04-14T14:07:23.225Z,100474.16
2023-04-14T14:09:52.896Z,100477.13
2023-04-14T14:12:24.797Z,100475.22
2023-04-14T14:14:54.150Z,100479.25
2023-04-14T14:17:23.485Z,100484.44
2023-04-14T14:19:53.840Z,100488.91
2023-04-14T14:22:23.158Z,100486.78
2023-04-14T14:24:52.886Z,100471.38
2023-04-14T14:27:24.800Z,100480.22
2023-04-14T14:29:54.225Z,100478.47
2023-04-14T14:32:23.625Z,100477.06
2023-04-14T14:34:53.038Z,100489.94
2023-04-14T14:37:22.459Z,100476.06
2023-04-14T14:39:51.987Z,100469.41
2023-04-14T14:42:21.954Z,100469.59
2023-04-14T14:44:54.419Z,100466.94
2023-04-14T14:47:23.885Z,100468.00
2023-04-14T14:50:00.257Z,100461.84
2023-04-14T14:52:34.580Z,100456.72
2023-04-14T14:55:04.587Z,100465.03
2023-04-14T14:57:34.143Z,100456.63
2023-04-14T15:00:07.969Z,100461.44
2023-04-14T15:02:38.706Z,100463.91
2023-04-14T15:05:09.663Z,100464.50
2023-04-14T15:07:39.720Z,100459.97
2023-04-14T15:10:10.512Z,100454.22
2023-04-14T15:12:39.858Z,100454.47
2023-04-14T15:15:13.140Z,100451.31
2023-04-14T15:17:42.527Z,100455.09
2023-04-14T15:20:13.199Z,100461.56
2023-04-14T15:22:42.687Z,100455.31
2023-04-14T15:25:12.716Z,100451.53
2023-04-14T15:27:42.082Z,100451.81
2023-04-14T15:30:14.795Z,100449.28
2023-04-14T15:32:44.297Z,100444.97
2023-04-14T15:35:13.647Z,100442.31
2023-04-14T15:37:42.944Z,100447.78
2023-04-14T15:40:14.233Z,100450.66
2023-04-14T15:42:43.640Z,100449.28
2023-04-14T15:45:16.459Z,100449.75
2023-04-14T15:47:46.326Z,100455.16
2023-04-14T15:50:18.859Z,100452.28
2023-04-14T15:52:49.672Z,100453.81
2023-04-14T15:55:19.080Z,100453.00
2023-04-14T15:57:49.266Z,100456.00
2023-04-14T16:00:22.806Z,100456.53
2023-04-14T16:02:52.586Z,100455.97
2023-04-14T16:05:22.165Z,100450.81
2023-04-14T16:07:52.031Z,100450.03
2023-04-14T16:10:21.551Z,100454.66
2023-04-14T16:12:50.894Z,100451.69
2023-04-14T16:15:23.169Z,100447.09
2023-04-14T16:17:52.523Z,100451.84
2023-04-14T16:20:21.988Z,100449.84
2023-04-14T16:22:52.548Z,100452.72
2023-04-14T16:25:22.267Z,100452.00
2023-04-14T16:27:52.352Z,100446.31
2023-04-14T16:30:24.323Z,100453.06
2023-04-14T16:32:53.798Z,100445.59
2023-04-14T16:35:23.165Z,100454.44
2023-04-14T16:37:52.740Z,100451.28
2023-04-14T16:40:22.182Z,100457.28
2023-04-14T16:42:51.822Z,100461.50
2023-04-14T16:45:23.950Z,100468.25
2023-04-14T16:47:53.377Z,100468.53
2023-04-14T16:50:22.732Z,100476.09
2023-04-14T16:52:52.486Z,100471.78
2023-04-14T16:55:21.805Z,100467.44
2023-04-14T16:57:51.641Z,100473.00
2023-04-14T17:00:24.289Z,100466.88
2023-04-14T17:02:53.806Z,100470.84
2023-04-14T17:05:23.403Z,100465.41
2023-04-14T17:07:53.005Z,100475.97
2023-04-14T17:10:22.409Z,100473.44
2023-04-14T17:12:53.004Z,100481.91
2023-04-14T17:15:24.877Z,100467.22
2023-04-14T17:17:54.800Z,100473.34
2023-04-14T17:20:25.656Z,100476.47
2023-04-14T17:22:55.408Z,100471.22
2023-04-14T17:25:25.921Z,100473.09
2023-04-14T17:27:56.884Z,100463.50
2023-04-14T17:30:28.883Z,100463.25
2023-04-14T17:32:59.609Z,100463.66
2023-04-14T17:35:29.258Z,100471.72
2023-04-14T17:37:58.961Z,100471.97
2023-04-14T17:40:29.309Z,100478.25
2023-04-14T17:42:59.123Z,100476.03
2023-04-14T17:45:31.715Z,100477.91
2023-04-14T17:48:01.033Z,100482.38
2023-04-14T17:50:31.975Z,100478.25
2023-04-14T17:53:01.839Z,100486.69
2023-04-14T17:55:31.352Z,100487.88
2023-04-14T17:58:01.010Z,100500.91
2023-04-14T18:00:34.027Z,100501.50
2023-04-14T18:03:04.218Z,100501.63
2023-04-14T18:05:33.828Z,100506.31
2023-04-14T18:08:05.735Z,100514.06
2023-04-14T18:10:36.212Z,100519.25
2023-04-14T18:13:05.777Z,100516.63
2023-04-14T18:15:37.767Z,100517.59
2023-04-14T18:18:07.090Z,100518.19
2023-04-14T18:20:36.458Z,100520.75
2023-04-14T18:23:05.825Z,100509.50
2023-04-14T18:28:07.911Z,100515.63
2023-04-14T18:30:40.788Z,100516.19
2023-04-14T18:33:10.171Z,100513.31
2023-04-14T18:35:39.536Z,100527.75
2023-04-14T18:38:08.939Z,100519.19
2023-04-14T18:40:40.054Z,100522.03
2023-04-14T18:43:09.384Z,100526.69
2023-04-14T18:45:41.525Z,100527.38
2023-04-14T18:48:10.867Z,100524.94
2023-04-14T18:50:41.191Z,100527.66
2023-04-14T18:53:10.837Z,100529.84
2023-04-14T18:55:45.413Z,100530.38
2023-04-14T18:58:15.329Z,100529.94
2023-04-14T19:00:48.123Z,100533.22
2023-04-14T19:03:18.862Z,100530.09
2023-04-14T19:05:48.362Z,100533.84
2023-04-14T19:08:17.803Z,100529.22
2023-04-14T19:10:48.527Z,100541.00
2023-04-14T19:13:18.208Z,100528.81
2023-04-14T19:15:50.549Z,100532.63
2023-04-14T19:18:20.433Z,100539.44
2023-04-14T19:20:50.099Z,100538.63
2023-04-14T19:23:19.584Z,100538.50
2023-04-14T19:25:49.011Z,100532.78
2023-04-14T19:28:19.003Z,100534.16
2023-04-14T19:30:51.059Z,100533.81
2023-04-14T19:33:20.391Z,100529.19
2023-04-14T19:35:51.026Z,100533.09
2023-04-14T19:38:20.544Z,100524.97
2023-04-14T19:40:50.853Z,100530.44
2023-04-14T19:43:20.696Z,100531.06
2023-04-14T19:45:57.931Z,100524.31
2023-04-14T19:48:27.960Z,100528.69
2023-04-14T19:50:57.964Z,100521.31
2023-04-14T19:53:28.046Z,100519.00
2023-04-14T19:55:58.963Z,100529.63
2023-04-14T19:58:30.731Z,100522.25
2023-04-14T20:01:04.960Z,100524.31
2023-04-14T20:03:35.089Z,100516.56
2023-04-14T20:06:04.524Z,100520.16
2023-04-14T20:08:34.394Z,100515.66
2023-04-14T20:11:03.714Z,100514.94
2023-04-14T20:13:35.123Z,100510.03
2023-04-14T20:16:07.522Z,100512.72
2023-04-14T20:18:37.742Z,100510.94
2023-04-14T20:21:07.582Z,100503.53
2023-04-14T20:23:36.976Z,100503.91
2023-04-14T20:26:07.237Z,100494.66
2023-04-14T20:28:36.717Z,100502.28
2023-04-14T20:31:09.560Z,100503.44
2023-04-14T20:33:39.585Z,100511.19
2023-04-14T20:36:08.911Z,100503.03
2023-04-14T20:38:38.312Z,100504.75
2023-04-14T20:41:07.872Z,100502.59
2023-04-14T20:43:37.237Z,100495.53
2023-04-14T20:46:09.221Z,100503.00
2023-04-14T20:48:38.895Z,100514.72
2023-04-14T20:51:08.716Z,100502.75
2023-04-14T20:53:38.077Z,100505.03
2023-04-14T20:56:07.975Z,100499.44
2023-04-14T20:58:37.308Z,100500.53
2023-04-14T21:01:09.403Z,100504.91
2023-04-14T21:03:39.552Z,100502.59
2023-04-14T21:06:09.111Z,100498.84
2023-04-14T21:08:39.591Z,100503.25
2023-04-14T21:11:16.601Z,100502.44
2023-04-14T21:15:31.453Z,100493.47
2023-04-14T21:16:40.758Z,100496.59
2023-04-14T21:19:10.334Z,100499.22
2023-04-14T21:21:40.125Z,100500.06
2023-04-14T21:24:09.977Z,100506.28
2023-04-14T21:26:39.601Z,100496.84
2023-04-14T21:29:09.540Z,100503.50
2023-04-14T21:31:42.120Z,100496.91
2023-04-14T21:34:12.164Z,100489.66
2023-04-14T21:36:41.702Z,100487.69
2023-04-14T21:39:11.833Z,100488.03
2023-04-14T21:41:42.222Z,100493.31
2023-04-14T21:44:13.284Z,100492.38
2023-04-14T21:46:45.296Z,100488.00
2023-04-14T21:49:14.681Z,100496.09
2023-04-14T21:51:44.044Z,100486.50
2023-04-14T21:54:13.958Z,100489.84
2023-04-14T21:56:43.362Z,100493.41
2023-04-14T21:59:13.296Z,100479.34
2023-04-14T22:01:45.483Z,100483.56
2023-04-14T22:04:25.172Z,100487.63
2023-04-14T22:07:02.735Z,100474.22
2023-04-14T22:09:33.549Z,100484.47
2023-04-14T22:12:03.419Z,100483.00
2023-04-14T22:14:32.916Z,100481.72
2023-04-14T22:17:04.935Z,100479.41
2023-04-14T22:19:34.293Z,100488.28
2023-04-14T22:22:03.642Z,100474.75
2023-04-14T22:24:33.359Z,100487.91
2023-04-14T22:27:03.289Z,100486.34
2023-04-14T22:29:32.620Z,100480.22
2023-04-14T22:32:01.924Z,100464.91
2023-04-14T22:34:33.880Z,100466.22
2023-04-14T22:37:03.936Z,100469.38
2023-04-14T22:39:33.257Z,100465.03
2023-04-14T22:42:02.654Z,100462.28
2023-04-14T22:44:32.174Z,100457.94
2023-04-14T22:47:01.887Z,100464.09
2023-04-14T22:49:34.557Z,100458.38
2023-04-14T22:52:04.277Z,100455.00
2023-04-14T22:54:33.847Z,100462.22
2023-04-14T22:57:03.430Z,100461.63
2023-04-14T22:59:32.779Z,100459.50
2023-04-14T23:02:02.451Z,100454.00
2023-04-14T23:04:35.416Z,100451.81
2023-04-14T23:07:05.269Z,100455.22
2023-04-14T23:09:34.615Z,100455.25
2023-04-14T23:12:04.652Z,100451.25
2023-04-14T23:14:34.184Z,100454.25
2023-04-14T23:17:03.492Z,100448.19
2023-04-14T23:19:35.957Z,100455.50
2023-04-14T23:22:05.260Z,100457.19
2023-04-14T23:24:34.644Z,100448.41
2023-04-14T23:27:04.234Z,100453.13
2023-04-14T23:29:33.710Z,100453.69
2023-04-14T23:32:03.036Z,100449.03
2023-04-14T23:34:35.046Z,100445.25
2023-04-14T23:37:04.440Z,100440.91
2023-04-14T23:39:34.477Z,100441.72
2023-04-14T23:42:04.544Z,100440.91
2023-04-14T23:44:34.039Z,100441.16
2023-04-14T23:47:04.762Z,100431.53
2023-04-14T23:49:38.387Z,100431.41
2023-04-14T23:52:08.459Z,100433.03
2023-04-14T23:54:37.825Z,100427.66
2023-04-14T23:57:07.747Z,100423.69
2023-04-14T23:59:37.217Z,100426.66
